Latest Coastal Weather Observations for Gunn Point

IDD60701

Issued at 2:05 pm CST Tuesday 2 September 2014 (issued every 10 minutes, with the page automatically refreshed every 10 minutes)

About coastal observations | Map of coastal stations | Coastal observations for NT | Marine services | Other Formats
Station Details ID: 014023 Name: GUNN POINT Lat: -12.25 Lon: 131.04 Height: 25.0 m
Data from the previous 72 hours. | See also: Recent months for locations in Northern Territory
Date/Time
CST
Temp

°C
Wind Pressure Rain
since 9am
mm
Weather Cloud Vis
km
Sea
Height
m
Swell
Dir
 
Speed
knots
Gust
knots
hPa Trend Height
m
Period
s
Dir
02/02:00pm 30.4 NNE 8 13 1012.3 - 0.0 - - - - - - -
02/01:30pm 30.5 NE 8 14 1012.6 - 0.0 - - - - - - -
02/01:00pm 30.8 NE 9 13 1013.1 - 0.0 - - - - - - -
02/12:30pm 31.3 NE 5 10 1013.6 - 0.0 - - - - - - -
02/12:00pm 31.4 NE 4 10 1014.0 - 0.0 - - - - - - -
02/11:30am 29.9 NE 6 10 1014.5 - 0.0 - - - - - - -
02/11:00am 29.6 NE 6 11 1015.0 - 0.0 - - - - - - -
02/10:30am 29.4 E 5 12 1015.5 - 0.0 - - - - - - -
02/10:00am 28.3 E 5 9 1015.6 - 0.0 - - - - - - -
02/09:30am 27.6 E 4 9 1015.5 - 0.0 - - - - - - -
02/09:00am 26.3 ENE 3 7 1015.4 - 0.0 - - - - - - -
02/08:30am 23.6 CALM 0 0 1015.2 - 0.0 - - - - - - -
02/08:00am 19.8 CALM 0 0 1015.0 - 0.0 - - - - - - -
02/07:30am 15.5 CALM 0 0 1014.9 - 0.0 - - - - - - -
02/07:00am 14.0 CALM 0 0 1014.5 - 0.0 - - - - - - -
02/06:30am 14.0 CALM 0 0 1014.5 - 0.0 - - - - - - -
02/06:00am 13.9 CALM 0 0 1014.3 - 0.0 - - - - - - -
02/05:30am 14.4 CALM 0 0 1014.4 - 0.0 - - - - - - -
02/05:00am 15.5 CALM 0 0 1014.4 - 0.0 - - - - - - -
02/04:30am 14.7 CALM 0 0 1014.3 - 0.0 - - - - - - -
02/04:00am 15.2 CALM 0 0 1014.1 - 0.0 - - - - - - -
02/03:30am 15.5 CALM 0 0 1014.2 - 0.0 - - - - - - -
02/03:00am 16.6 CALM 0 0 1014.2 - 0.0 - - - - - - -
02/02:30am 16.1 CALM 0 0 1014.3 - 0.0 - - - - - - -
02/02:00am 16.6 CALM 0 0 1014.3 - 0.0 - - - - - - -
02/01:30am 17.7 CALM 0 0 1014.4 - 0.0 - - - - - - -
02/01:00am 17.6 CALM 0 0 1014.5 - 0.0 - - - - - - -
02/12:30am 19.1 E 1 3 1014.6 - 0.0 - - - - - - -
02/12:00am 21.0 NE 1 4 1014.8 - 0.0 - - - - - - -
 
Date/Time
CST
Temp

°C
Wind Pressure Rain
since 9am
mm
Weather Cloud Vis
km
Sea
Height
m
Swell
Dir
 
Speed
knots
Gust
knots
hPa Trend Height
m
Period
s
Dir
01/11:30pm 21.3 SE 3 10 1014.6 - 0.0 - - - - - - -
01/11:00pm 22.6 S 3 4 1013.8 - 0.0 - - - - - - -
01/10:30pm 23.0 SSW 3 5 1013.7 - 0.0 - - - - - - -
01/10:00pm 22.1 SSW 2 4 1013.6 - 0.0 - - - - - - -
01/09:30pm 22.6 SW 1 4 1013.4 - 0.0 - - - - - - -
01/09:00pm 23.2 SW 1 3 1013.0 - 0.0 - - - - - - -
01/08:30pm 24.1 SW 2 5 1012.7 - 0.0 - - - - - - -
01/08:00pm 24.1 WSW 1 5 1012.3 - 0.0 - - - - - - -
01/07:30pm 24.9 WSW 2 6 1011.9 - 0.0 - - - - - - -
01/07:00pm 25.5 WSW 2 7 1011.6 - 0.0 - - - - - - -
01/06:30pm 27.2 CALM 0 1 1011.2 - 0.0 - - - - - - -
01/06:00pm 29.0 N 2 4 1010.9 - 0.0 - - - - - - -
01/05:30pm 29.7 NNW 3 5 1010.7 - 0.0 - - - - - - -
01/05:00pm 29.9 N 5 7 1010.7 - 0.0 - - - - - - -
01/04:30pm 30.5 NW 5 8 1010.6 - 0.0 - - - - - - -
01/04:00pm 29.3 NW 6 9 1010.7 - 0.0 - - - - - - -
01/03:30pm 29.6 WNW 7 13 1010.7 - 0.0 - - - - - - -
01/03:00pm 29.2 W 6 12 1011.0 - 0.0 - - - - - - -
01/02:30pm 31.4 N 5 12 1011.3 - 0.0 - - - - - - -
01/02:00pm 31.1 E 5 10 1011.7 - 0.0 - - - - - - -
01/01:30pm 30.2 NW 5 8 1012.3 - 0.0 - - - - - - -
01/01:00pm 28.3 WNW 5 9 1013.0 - 0.0 - - - - - - -
01/12:30pm 27.8 WNW 6 10 1013.5 - 0.0 - - - - - - -
01/12:00pm 28.9 W 5 9 1013.8 - 0.0 - - - - - - -
01/11:30am 30.7 ENE 3 8 1014.2 - 0.0 - - - - - - -
01/11:00am 29.8 NE 5 10 1014.8 - 0.0 - - - - - - -
01/10:30am 28.1 NNE 4 8 1015.2 - 0.0 - - - - - - -
01/10:00am 27.9 NE 4 7 1015.4 - 0.0 - - - - - - -
01/09:30am 26.9 NE 3 6 1015.4 - 0.0 - - - - - - -
01/09:00am 26.1 ENE 3 7 1015.5 - 0.0 - - - - - - -
01/08:30am 24.0 CALM 0 0 1015.5 - 0.0 - - - - - - -
01/08:00am 20.5 CALM 0 0 1015.3 - 0.0 - - - - - - -
01/07:30am 17.5 CALM 0 0 1015.3 - 0.0 - - - - - - -
01/07:00am 14.9 CALM 0 0 1015.0 - 0.0 - - - - - - -
01/06:30am 15.0 CALM 0 0 1014.7 - 0.0 - - - - - - -
01/06:00am 15.6 CALM 0 0 1014.4 - 0.0 - - - - - - -
01/05:30am 14.7 CALM 0 0 1014.2 - 0.0 - - - - - - -
01/05:00am 13.9 CALM 0 0 1014.0 - 0.0 - - - - - - -
01/04:30am 14.2 CALM 0 0 1013.7 - 0.0 - - - - - - -
01/04:00am 14.4 CALM 0 0 1013.3 - 0.0 - - - - - - -
01/03:30am 15.1 CALM 0 0 1013.2 - 0.0 - - - - - - -
01/03:00am 14.8 CALM 0 0 1013.1 - 0.0 - - - - - - -
01/02:30am 15.0 CALM 0 0 1013.2 - 0.0 - - - - - - -
01/02:00am 16.0 NE 1 3 1013.3 - 0.0 - - - - - - -
01/01:30am 16.0 CALM 0 0 1013.4 - 0.0 - - - - - - -
01/01:00am 16.8 CALM 0 0 1013.4 - 0.0 - - - - - - -
01/12:30am 17.8 CALM 0 1 1013.3 - 0.0 - - - - - - -
01/12:00am 19.3 NNE 2 5 1013.4 - 0.0 - - - - - - -
 
Date/Time
CST
Temp

°C
Wind Pressure Rain
since 9am
mm
Weather Cloud Vis
km
Sea
Height
m
Swell
Dir
 
Speed
knots
Gust
knots
hPa Trend Height
m
Period
s
Dir
31/11:30pm 17.9 NE 1 3 1013.3 - 0.0 - - - - - - -
31/11:00pm 19.3 ENE 3 6 1012.9 - 0.0 - - - - - - -
31/10:30pm 19.0 SSW 1 2 1012.5 - 0.0 - - - - - - -
31/10:00pm 21.6 SW 1 3 1012.6 - 0.0 - - - - - - -
31/09:30pm 22.2 SSW 1 4 1012.5 - 0.0 - - - - - - -
31/09:00pm 23.3 SW 1 4 1012.2 - 0.0 - - - - - - -
31/08:30pm 23.7 WSW 2 4 1011.8 - 0.0 - - - - - - -
31/08:00pm 20.6 W 2 5 1011.7 - 0.0 - - - - - - -
31/07:30pm 17.8 CALM 0 2 1011.3 - 0.0 - - - - - - -
31/07:00pm 19.6 CALM 0 0 1010.7 - 0.0 - - - - - - -
31/06:59pm 19.7 CALM 0 0 1010.7 - 0.0 - - - - - - -
31/06:30pm 24.7 CALM 0 0 1010.4 - 0.0 - - - - - - -
31/06:00pm 28.3 NNE 3 6 1010.1 - 0.0 - - - - - - -
31/05:30pm 29.3 N 4 7 1009.9 - 0.0 - - - - - - -
31/05:00pm 29.7 N 5 8 1009.8 - 0.0 - - - - - - -
31/04:30pm 30.3 N 4 8 1009.9 - 0.0 - - - - - - -
31/04:00pm 29.1 WNW 6 10 1010.1 - 0.0 - - - - - - -
31/03:30pm 28.7 WNW 6 12 1010.1 - 0.0 - - - - - - -
31/03:00pm 30.0 W 5 11 1010.3 - 0.0 - - - - - - -
31/02:30pm 32.7 SSE 5 11 1010.4 - 0.0 - - - - - - -
31/02:00pm 33.2 S 4 8 1011.0 - 0.0 - - - - - - -
31/01:30pm 32.3 SSE 6 16 1011.3 - 0.0 - - - - - - -
31/01:00pm 31.8 SE 7 13 1011.9 - 0.0 - - - - - - -
31/12:30pm 31.3 SE 7 14 1012.6 - 0.0 - - - - - - -
31/12:00pm 30.6 E 7 13 1013.2 - 0.0 - - - - - - -
31/11:30am 30.0 E 6 12 1013.8 - 0.0 - - - - - - -
31/11:00am 29.0 ENE 6 12 1014.4 - 0.0 - - - - - - -
31/10:30am 29.0 ENE 4 10 1014.7 - 0.0 - - - - - - -
31/10:00am 27.8 NE 4 8 1014.9 - 0.0 - - - - - - -
31/09:30am 27.1 ENE 4 8 1014.9 - 0.0 - - - - - - -
31/09:00am 25.6 NE 3 7 1014.9 - - - - - - - - -
31/08:30am 23.5 CALM 0 2 1014.7 - - - - - - - - -
31/08:00am 19.2 CALM 0 0 1014.4 - - - - - - - - -
31/07:30am 14.8 CALM 0 0 1014.1 - - - - - - - - -
31/07:00am 13.0 ESE 1 2 1013.7 - - - - - - - - -
31/06:30am 13.7 E 1 1 1013.4 - - - - - - - - -
31/06:00am 14.5 ENE 1 2 1013.1 - - - - - - - - -
31/05:30am 14.7 ENE 1 2 1013.0 - - - - - - - - -
31/05:00am 14.7 NE 2 3 1012.9 - - - - - - - - -
31/04:30am 14.5 NE 1 3 1012.9 - - - - - - - - -
31/04:00am 14.3 NE 1 2 1013.0 - - - - - - - - -
31/03:30am 14.9 ENE 2 4 1013.1 - - - - - - - - -
31/03:00am 15.3 ENE 3 4 1013.1 - - - - - - - - -
31/02:30am 14.1 NNE 1 2 1013.1 - - - - - - - - -
31/02:00am 14.4 CALM 0 1 1013.3 - - - - - - - - -
31/01:30am 14.8 N 1 2 1013.2 - - - - - - - - -
31/01:00am 14.5 CALM 0 0 1013.3 - - - - - - - - -
31/12:30am 14.5 CALM 0 0 1013.4 - - - - - - - - -
31/12:00am 15.0 CALM 0 0 1013.6 - - - - - - - - -
 
Date/Time
CST
Temp

°C
Wind Pressure Rain
since 9am
mm
Weather Cloud Vis
km
Sea
Height
m
Swell
Dir
 
Speed
knots
Gust
knots
hPa Trend Height
m
Period
s
Dir
30/11:30pm 15.5 NNE 1 3 1013.7 - - - - - - - - -
30/11:00pm 15.1 NNE 1 2 1013.4 - 0.0 - - - - - - -
30/10:30pm 14.4 CALM 0 0 1013.1 - 0.0 - - - - - - -
30/10:00pm 13.9 CALM 0 0 1013.0 - 0.0 - - - - - - -
30/09:30pm 14.4 CALM 0 1 1012.7 - 0.0 - - - - - - -
30/09:00pm 14.6 CALM 0 0 1012.6 - 0.0 - - - - - - -
30/08:30pm 15.3 CALM 0 0 1012.3 - 0.0 - - - - - - -
30/08:00pm 16.1 CALM 0 1 1012.0 - 0.0 - - - - - - -
30/07:30pm 17.5 CALM 0 0 1011.6 - 0.0 - - - - - - -
30/07:00pm 19.5 CALM 0 0 1011.4 - 0.0 - - - - - - -
30/06:30pm 24.1 CALM 0 0 1011.3 - 0.0 - - - - - - -
30/06:00pm 27.4 NNE 2 4 1011.1 - 0.0 - - - - - - -
30/05:30pm 28.3 N 4 6 1010.8 - 0.0 - - - - - - -
30/05:00pm 29.0 N 5 7 1010.6 - 0.0 - - - - - - -
30/04:30pm 29.6 N 5 9 1010.5 - 0.0 - - - - - - -
30/04:00pm 31.0 N 6 10 1010.2 - 0.0 - - - - - - -
30/03:30pm 30.7 N 5 11 1010.3 - 0.0 - - - - - - -
30/03:00pm 32.5 NNE 6 11 1010.6 - 0.0 - - - - - - -
30/02:30pm 32.1 N 6 11 1010.9 - 0.0 - - - - - - -

Other Formats:

Comma delimited format used in spreadsheet applications
http://www.bom.gov.au/fwo/IDD60701/IDD60701.99501.axf

JavaScript Object Notation format (JSON) in row-major order
http://www.bom.gov.au/fwo/IDD60701/IDD60701.99501.json